sensor_id;sensor_type;location;lat;lon;timestamp;pressure;altitude;pressure_sealevel;temperature;humidity
7532;BME280;3807;49.030;8.714;2023-03-25T00:00:48;98678.91;;;12.08;71.55
7532;BME280;3807;49.030;8.714;2023-03-25T00:03:14;98688.22;;;11.91;71.61
7532;BME280;3807;49.030;8.714;2023-03-25T00:05:39;98686.12;;;12.00;71.69
7532;BME280;3807;49.030;8.714;2023-03-25T00:08:05;98679.22;;;12.02;71.05
7532;BME280;3807;49.030;8.714;2023-03-25T00:10:31;98679.91;;;11.52;73.06
7532;BME280;3807;49.030;8.714;2023-03-25T00:12:56;98674.87;;;12.04;71.37
7532;BME280;3807;49.030;8.714;2023-03-25T00:15:29;98675.03;;;11.64;71.40
7532;BME280;3807;49.030;8.714;2023-03-25T00:17:58;98671.31;;;12.06;71.13
7532;BME280;3807;49.030;8.714;2023-03-25T00:20:23;98682.91;;;12.13;70.65
7532;BME280;3807;49.030;8.714;2023-03-25T00:22:49;98676.94;;;12.13;70.54
7532;BME280;3807;49.030;8.714;2023-03-25T00:25:14;98673.72;;;12.09;70.18
7532;BME280;3807;49.030;8.714;2023-03-25T00:27:45;98671.94;;;12.11;70.71
7532;BME280;3807;49.030;8.714;2023-03-25T00:30:13;98672.50;;;11.64;71.02
7532;BME280;3807;49.030;8.714;2023-03-25T00:32:38;98671.72;;;11.99;70.85
7532;BME280;3807;49.030;8.714;2023-03-25T00:35:05;98667.06;;;11.89;70.79
7532;BME280;3807;49.030;8.714;2023-03-25T00:37:33;98665.53;;;12.20;69.71
7532;BME280;3807;49.030;8.714;2023-03-25T00:39:58;98670.72;;;12.19;69.99
7532;BME280;3807;49.030;8.714;2023-03-25T00:42:23;98666.81;;;12.11;70.26
7532;BME280;3807;49.030;8.714;2023-03-25T00:44:52;98652.09;;;12.16;69.40
7532;BME280;3807;49.030;8.714;2023-03-25T00:47:18;98658.47;;;12.25;69.36
7532;BME280;3807;49.030;8.714;2023-03-25T00:49:46;98659.59;;;12.20;69.37
7532;BME280;3807;49.030;8.714;2023-03-25T00:52:12;98665.41;;;11.88;69.81
7532;BME280;3807;49.030;8.714;2023-03-25T00:54:38;98654.84;;;11.96;70.54
7532;BME280;3807;49.030;8.714;2023-03-25T00:57:03;98654.28;;;11.72;70.22
7532;BME280;3807;49.030;8.714;2023-03-25T00:59:29;98654.97;;;11.58;70.55
7532;BME280;3807;49.030;8.714;2023-03-25T01:01:54;98645.44;;;11.79;70.85
7532;BME280;3807;49.030;8.714;2023-03-25T01:04:20;98648.12;;;11.76;70.58
7532;BME280;3807;49.030;8.714;2023-03-25T01:06:46;98654.97;;;11.58;70.65
7532;BME280;3807;49.030;8.714;2023-03-25T01:09:16;98647.16;;;11.79;69.29
7532;BME280;3807;49.030;8.714;2023-03-25T01:11:44;98642.22;;;11.58;70.93
7532;BME280;3807;49.030;8.714;2023-03-25T01:14:15;98651.19;;;11.48;70.72
7532;BME280;3807;49.030;8.714;2023-03-25T01:16:42;98638.31;;;11.51;70.99
7532;BME280;3807;49.030;8.714;2023-03-25T01:19:08;98631.53;;;11.67;69.96
7532;BME280;3807;49.030;8.714;2023-03-25T01:21:34;98630.34;;;11.57;70.43
7532;BME280;3807;49.030;8.714;2023-03-25T01:24:02;98637.28;;;11.36;70.92
7532;BME280;3807;49.030;8.714;2023-03-25T01:26:28;98639.50;;;11.44;70.61
7532;BME280;3807;49.030;8.714;2023-03-25T01:28:53;98621.56;;;11.63;69.90
7532;BME280;3807;49.030;8.714;2023-03-25T01:31:19;98616.75;;;11.39;70.39
7532;BME280;3807;49.030;8.714;2023-03-25T01:33:47;98613.16;;;11.43;70.07
7532;BME280;3807;49.030;8.714;2023-03-25T01:36:13;98616.16;;;11.34;70.17
7532;BME280;3807;49.030;8.714;2023-03-25T01:38:39;98603.81;;;11.44;70.26
7532;BME280;3807;49.030;8.714;2023-03-25T01:41:05;98599.44;;;11.46;70.20
7532;BME280;3807;49.030;8.714;2023-03-25T01:43:32;98601.25;;;11.44;70.33
7532;BME280;3807;49.030;8.714;2023-03-25T01:45:58;98606.87;;;11.51;70.13
7532;BME280;3807;49.030;8.714;2023-03-25T01:48:32;98621.84;;;11.39;70.53
7532;BME280;3807;49.030;8.714;2023-03-25T01:51:06;98616.75;;;11.57;70.46
7532;BME280;3807;49.030;8.714;2023-03-25T01:53:34;98626.75;;;11.44;70.62
7532;BME280;3807;49.030;8.714;2023-03-25T01:56:01;98641.06;;;11.10;72.08
7532;BME280;3807;49.030;8.714;2023-03-25T01:58:28;98659.91;;;10.89;73.25
7532;BME280;3807;49.030;8.714;2023-03-25T02:00:55;98674.75;;;11.17;72.58
7532;BME280;3807;49.030;8.714;2023-03-25T02:03:23;98683.44;;;10.94;73.45
7532;BME280;3807;49.030;8.714;2023-03-25T02:06:00;98661.59;;;10.51;75.40
7532;BME280;3807;49.030;8.714;2023-03-25T02:08:29;98645.78;;;10.44;75.46
7532;BME280;3807;49.030;8.714;2023-03-25T02:10:57;98640.34;;;10.52;75.18
7532;BME280;3807;49.030;8.714;2023-03-25T02:13:23;98650.06;;;10.81;74.15
7532;BME280;3807;49.030;8.714;2023-03-25T02:15:52;98654.31;;;10.81;74.05
7532;BME280;3807;49.030;8.714;2023-03-25T02:18:28;98658.63;;;10.97;73.64
7532;BME280;3807;49.030;8.714;2023-03-25T02:21:23;98670.09;;;10.31;76.19
7532;BME280;3807;49.030;8.714;2023-03-25T02:34:43;98677.28;;;10.98;72.48
7532;BME280;3807;49.030;8.714;2023-03-25T02:40:07;98665.53;;;10.95;73.26
7532;BME280;3807;49.030;8.714;2023-03-25T02:42:50;98673.31;;;10.92;72.88
7532;BME280;3807;49.030;8.714;2023-03-25T02:45:36;98671.78;;;11.07;72.46
7532;BME280;3807;49.030;8.714;2023-03-25T02:48:08;98658.75;;;10.38;73.87
7532;BME280;3807;49.030;8.714;2023-03-25T02:50:55;98665.34;;;10.81;72.95
7532;BME280;3807;49.030;8.714;2023-03-25T02:53:29;98651.72;;;10.82;73.39
7532;BME280;3807;49.030;8.714;2023-03-25T02:56:00;98656.78;;;11.01;72.38
7532;BME280;3807;49.030;8.714;2023-03-25T02:58:28;98650.34;;;10.75;72.39
7532;BME280;3807;49.030;8.714;2023-03-25T03:00:55;98648.88;;;10.51;74.03
7532;BME280;3807;49.030;8.714;2023-03-25T03:03:23;98653.78;;;10.74;73.12
7532;BME280;3807;49.030;8.714;2023-03-25T03:05:50;98652.34;;;11.24;71.32
7532;BME280;3807;49.030;8.714;2023-03-25T03:16:21;98637.19;;;10.65;73.54
7532;BME280;3807;49.030;8.714;2023-03-25T03:24:13;98627.06;;;10.64;73.16
7532;BME280;3807;49.030;8.714;2023-03-25T03:29:36;98627.59;;;10.52;73.58
7532;BME280;3807;49.030;8.714;2023-03-25T03:32:09;98637.81;;;10.70;72.82
7532;BME280;3807;49.030;8.714;2023-03-25T03:34:53;98646.25;;;10.90;71.49
7532;BME280;3807;49.030;8.714;2023-03-25T03:37:24;98638.09;;;10.64;72.20
7532;BME280;3807;49.030;8.714;2023-03-25T03:39:51;98637.72;;;10.72;72.49
7532;BME280;3807;49.030;8.714;2023-03-25T03:42:32;98642.50;;;10.61;71.73
7532;BME280;3807;49.030;8.714;2023-03-25T03:45:06;98634.94;;;10.39;72.96
7532;BME280;3807;49.030;8.714;2023-03-25T03:47:36;98638.09;;;10.05;73.46
7532;BME280;3807;49.030;8.714;2023-03-25T03:50:08;98635.66;;;10.22;73.36
7532;BME280;3807;49.030;8.714;2023-03-25T03:52:39;98632.28;;;10.42;72.89
7532;BME280;3807;49.030;8.714;2023-03-25T03:55:12;98633.72;;;10.29;72.48
7532;BME280;3807;49.030;8.714;2023-03-25T03:57:45;98626.91;;;10.29;72.55
7532;BME280;3807;49.030;8.714;2023-03-25T04:00:17;98633.09;;;10.42;71.69
7532;BME280;3807;49.030;8.714;2023-03-25T04:02:54;98641.63;;;10.41;72.16
7532;BME280;3807;49.030;8.714;2023-03-25T04:05:23;98642.09;;;10.31;72.59
7532;BME280;3807;49.030;8.714;2023-03-25T04:08:13;98639.75;;;10.06;72.57
7532;BME280;3807;49.030;8.714;2023-03-25T04:10:53;98640.59;;;10.25;71.72
7532;BME280;3807;49.030;8.714;2023-03-25T04:13:25;98641.97;;;10.13;73.04
7532;BME280;3807;49.030;8.714;2023-03-25T04:15:52;98642.59;;;10.39;71.94
7532;BME280;3807;49.030;8.714;2023-03-25T04:18:18;98637.66;;;10.15;72.54
7532;BME280;3807;49.030;8.714;2023-03-25T04:20:47;98631.03;;;10.11;72.39
7532;BME280;3807;49.030;8.714;2023-03-25T04:23:13;98632.13;;;10.06;72.17
7532;BME280;3807;49.030;8.714;2023-03-25T04:25:42;98634.75;;;9.84;72.90
7532;BME280;3807;49.030;8.714;2023-03-25T04:28:12;98636.97;;;10.12;71.73
7532;BME280;3807;49.030;8.714;2023-03-25T04:30:38;98653.16;;;10.09;71.58
7532;BME280;3807;49.030;8.714;2023-03-25T04:33:04;98644.19;;;10.00;72.56
7532;BME280;3807;49.030;8.714;2023-03-25T04:35:30;98653.94;;;10.11;71.70
7532;BME280;3807;49.030;8.714;2023-03-25T04:37:57;98649.81;;;9.88;71.71
7532;BME280;3807;49.030;8.714;2023-03-25T04:40:22;98659.87;;;10.32;71.15
7532;BME280;3807;49.030;8.714;2023-03-25T04:42:49;98655.38;;;9.76;72.04
7532;BME280;3807;49.030;8.714;2023-03-25T04:45:17;98664.69;;;9.97;72.11
7532;BME280;3807;49.030;8.714;2023-03-25T04:47:45;98671.53;;;10.16;71.55
7532;BME280;3807;49.030;8.714;2023-03-25T04:50:23;98673.72;;;10.05;71.64
7532;BME280;3807;49.030;8.714;2023-03-25T04:52:49;98662.66;;;10.26;70.51
7532;BME280;3807;49.030;8.714;2023-03-25T04:55:15;98662.97;;;9.98;71.57
7532;BME280;3807;49.030;8.714;2023-03-25T04:57:48;98664.03;;;9.92;71.46
7532;BME280;3807;49.030;8.714;2023-03-25T05:00:19;98665.97;;;10.08;71.46
7532;BME280;3807;49.030;8.714;2023-03-25T05:02:46;98676.69;;;10.14;71.56
7532;BME280;3807;49.030;8.714;2023-03-25T05:05:16;98663.41;;;10.08;71.14
7532;BME280;3807;49.030;8.714;2023-03-25T05:07:46;98668.81;;;10.00;71.50
7532;BME280;3807;49.030;8.714;2023-03-25T05:10:17;98679.62;;;10.05;71.03
7532;BME280;3807;49.030;8.714;2023-03-25T05:12:42;98672.28;;;10.18;71.29
7532;BME280;3807;49.030;8.714;2023-03-25T05:15:09;98682.22;;;10.03;71.20
7532;BME280;3807;49.030;8.714;2023-03-25T05:17:34;98671.31;;;10.01;71.26
7532;BME280;3807;49.030;8.714;2023-03-25T05:20:00;98672.16;;;10.00;70.83
7532;BME280;3807;49.030;8.714;2023-03-25T05:22:25;98684.31;;;10.14;70.75
7532;BME280;3807;49.030;8.714;2023-03-25T05:24:50;98681.47;;;10.01;71.05
7532;BME280;3807;49.030;8.714;2023-03-25T05:27:18;98678.41;;;10.14;70.68
7532;BME280;3807;49.030;8.714;2023-03-25T05:29:44;98668.50;;;10.08;70.81
7532;BME280;3807;49.030;8.714;2023-03-25T05:32:10;98675.81;;;9.95;70.67
7532;BME280;3807;49.030;8.714;2023-03-25T05:34:38;98680.69;;;9.99;70.33
7532;BME280;3807;49.030;8.714;2023-03-25T05:37:03;98673.38;;;9.92;71.22
7532;BME280;3807;49.030;8.714;2023-03-25T05:39:31;98669.34;;;10.08;70.91
7532;BME280;3807;49.030;8.714;2023-03-25T05:41:57;98669.69;;;9.78;71.14
7532;BME280;3807;49.030;8.714;2023-03-25T05:44:27;98680.31;;;10.09;70.85
7532;BME280;3807;49.030;8.714;2023-03-25T05:46:53;98680.94;;;9.93;70.79
7532;BME280;3807;49.030;8.714;2023-03-25T05:49:18;98676.06;;;9.89;70.70
7532;BME280;3807;49.030;8.714;2023-03-25T05:51:43;98669.81;;;9.96;70.82
7532;BME280;3807;49.030;8.714;2023-03-25T05:54:09;98682.09;;;10.07;70.09
7532;BME280;3807;49.030;8.714;2023-03-25T05:56:35;98678.34;;;9.95;70.94
7532;BME280;3807;49.030;8.714;2023-03-25T05:59:01;98680.69;;;9.99;70.72
7532;BME280;3807;49.030;8.714;2023-03-25T06:01:28;98684.50;;;9.89;70.86
7532;BME280;3807;49.030;8.714;2023-03-25T06:03:53;98675.63;;;9.99;70.54
7532;BME280;3807;49.030;8.714;2023-03-25T06:06:19;98689.09;;;10.01;70.31
7532;BME280;3807;49.030;8.714;2023-03-25T06:08:46;98687.00;;;10.11;70.18
7532;BME280;3807;49.030;8.714;2023-03-25T06:11:15;98695.97;;;9.99;70.15
7532;BME280;3807;49.030;8.714;2023-03-25T06:13:41;98693.62;;;10.15;69.96
7532;BME280;3807;49.030;8.714;2023-03-25T06:16:17;98704.38;;;10.22;70.06
7532;BME280;3807;49.030;8.714;2023-03-25T06:18:46;98715.66;;;10.37;69.62
7532;BME280;3807;49.030;8.714;2023-03-25T06:21:16;98713.16;;;10.15;69.29
7532;BME280;3807;49.030;8.714;2023-03-25T06:23:41;98717.09;;;10.22;69.98
7532;BME280;3807;49.030;8.714;2023-03-25T06:26:07;98727.41;;;10.19;69.98
7532;BME280;3807;49.030;8.714;2023-03-25T06:28:33;98716.94;;;10.27;69.73
7532;BME280;3807;49.030;8.714;2023-03-25T06:30:58;98723.53;;;10.31;70.00
7532;BME280;3807;49.030;8.714;2023-03-25T06:33:23;98720.37;;;10.25;70.07
7532;BME280;3807;49.030;8.714;2023-03-25T06:35:49;98726.66;;;10.37;69.99
7532;BME280;3807;49.030;8.714;2023-03-25T06:38:18;98732.22;;;10.25;70.25
7532;BME280;3807;49.030;8.714;2023-03-25T06:40:43;98731.62;;;10.40;69.69
7532;BME280;3807;49.030;8.714;2023-03-25T06:43:09;98737.06;;;10.52;69.46
7532;BME280;3807;49.030;8.714;2023-03-25T06:45:34;98738.41;;;10.60;69.16
7532;BME280;3807;49.030;8.714;2023-03-25T06:48:00;98749.91;;;10.69;68.60
7532;BME280;3807;49.030;8.714;2023-03-25T06:50:26;98741.59;;;10.65;68.85
7532;BME280;3807;49.030;8.714;2023-03-25T06:52:51;98745.91;;;10.63;68.83
7532;BME280;3807;49.030;8.714;2023-03-25T06:55:17;98745.88;;;10.44;69.54
7532;BME280;3807;49.030;8.714;2023-03-25T06:57:42;98741.31;;;10.32;70.07
7532;BME280;3807;49.030;8.714;2023-03-25T07:00:08;98746.41;;;10.32;70.08
7532;BME280;3807;49.030;8.714;2023-03-25T07:02:36;98739.75;;;10.48;69.62
7532;BME280;3807;49.030;8.714;2023-03-25T07:05:01;98741.84;;;10.59;69.10
7532;BME280;3807;49.030;8.714;2023-03-25T07:07:27;98733.97;;;10.45;69.59
7532;BME280;3807;49.030;8.714;2023-03-25T07:09:52;98740.28;;;10.36;69.95
7532;BME280;3807;49.030;8.714;2023-03-25T07:12:19;98733.66;;;10.32;70.14
7532;BME280;3807;49.030;8.714;2023-03-25T07:14:50;98732.06;;;10.50;69.61
7532;BME280;3807;49.030;8.714;2023-03-25T07:17:16;98730.06;;;10.16;70.32
7532;BME280;3807;49.030;8.714;2023-03-25T07:19:41;98728.09;;;10.22;70.21
7532;BME280;3807;49.030;8.714;2023-03-25T07:22:07;98730.72;;;10.41;69.79
7532;BME280;3807;49.030;8.714;2023-03-25T07:24:33;98726.06;;;10.31;70.19
7532;BME280;3807;49.030;8.714;2023-03-25T07:26:58;98721.34;;;10.42;69.89
7532;BME280;3807;49.030;8.714;2023-03-25T07:29:23;98724.72;;;10.22;70.26
7532;BME280;3807;49.030;8.714;2023-03-25T07:31:49;98704.25;;;10.05;70.88
7532;BME280;3807;49.030;8.714;2023-03-25T07:34:14;98702.00;;;10.17;70.50
7532;BME280;3807;49.030;8.714;2023-03-25T07:36:40;98714.50;;;10.44;69.91
7532;BME280;3807;49.030;8.714;2023-03-25T07:39:05;98725.72;;;10.18;70.44
7532;BME280;3807;49.030;8.714;2023-03-25T07:41:32;98723.66;;;10.28;69.81
7532;BME280;3807;49.030;8.714;2023-03-25T07:43:57;98722.25;;;10.41;69.88
7532;BME280;3807;49.030;8.714;2023-03-25T07:46:22;98708.06;;;10.35;69.92
7532;BME280;3807;49.030;8.714;2023-03-25T07:48:47;98717.41;;;10.35;70.07
7532;BME280;3807;49.030;8.714;2023-03-25T07:51:13;98712.44;;;10.52;69.65
7532;BME280;3807;49.030;8.714;2023-03-25T07:53:38;98710.75;;;10.32;69.73
7532;BME280;3807;49.030;8.714;2023-03-25T07:56:06;98719.50;;;10.45;69.78
7532;BME280;3807;49.030;8.714;2023-03-25T07:58:32;98721.19;;;10.46;69.48
7532;BME280;3807;49.030;8.714;2023-03-25T08:00:58;98718.94;;;10.39;69.71
7532;BME280;3807;49.030;8.714;2023-03-25T08:03:23;98718.94;;;10.39;69.83
7532;BME280;3807;49.030;8.714;2023-03-25T08:05:49;98717.16;;;10.41;69.87
7532;BME280;3807;49.030;8.714;2023-03-25T08:08:14;98708.72;;;10.59;69.10
7532;BME280;3807;49.030;8.714;2023-03-25T08:10:42;98711.97;;;10.63;69.16
7532;BME280;3807;49.030;8.714;2023-03-25T08:13:07;98706.19;;;10.59;69.12
7532;BME280;3807;49.030;8.714;2023-03-25T08:15:34;98700.75;;;10.48;69.40
7532;BME280;3807;49.030;8.714;2023-03-25T08:17:59;98701.78;;;10.44;69.52
7532;BME280;3807;49.030;8.714;2023-03-25T08:20:26;98699.72;;;10.52;69.53
7532;BME280;3807;49.030;8.714;2023-03-25T08:22:51;98699.38;;;10.60;69.29
7532;BME280;3807;49.030;8.714;2023-03-25T08:25:16;98700.97;;;10.62;68.81
7532;BME280;3807;49.030;8.714;2023-03-25T08:27:42;98695.47;;;10.71;68.74
7532;BME280;3807;49.030;8.714;2023-03-25T08:30:08;98709.62;;;10.58;69.12
7532;BME280;3807;49.030;8.714;2023-03-25T08:32:34;98719.78;;;10.79;68.65
7532;BME280;3807;49.030;8.714;2023-03-25T08:35:00;98713.53;;;10.86;68.19
7532;BME280;3807;49.030;8.714;2023-03-25T08:37:28;98715.91;;;10.70;68.35
7532;BME280;3807;49.030;8.714;2023-03-25T08:39:54;98736.69;;;10.61;68.95
7532;BME280;3807;49.030;8.714;2023-03-25T08:42:20;98713.78;;;10.61;69.15
7532;BME280;3807;49.030;8.714;2023-03-25T08:44:45;98737.78;;;10.35;71.12
7532;BME280;3807;49.030;8.714;2023-03-25T08:47:10;98753.13;;;9.91;73.30
7532;BME280;3807;49.030;8.714;2023-03-25T08:49:36;98755.00;;;10.08;72.64
7532;BME280;3807;49.030;8.714;2023-03-25T08:52:01;98750.47;;;9.94;73.72
7532;BME280;3807;49.030;8.714;2023-03-25T08:54:28;98749.56;;;9.95;73.07
7532;BME280;3807;49.030;8.714;2023-03-25T08:56:54;98735.00;;;9.98;73.07
7532;BME280;3807;49.030;8.714;2023-03-25T08:59:21;98738.94;;;10.28;72.05
7532;BME280;3807;49.030;8.714;2023-03-25T09:01:47;98736.50;;;10.45;71.37
7532;BME280;3807;49.030;8.714;2023-03-25T09:04:12;98730.56;;;10.24;72.15
7532;BME280;3807;49.030;8.714;2023-03-25T09:06:38;98729.75;;;10.23;72.04
7532;BME280;3807;49.030;8.714;2023-03-25T09:09:04;98725.38;;;10.27;72.14
7532;BME280;3807;49.030;8.714;2023-03-25T09:11:31;98722.78;;;10.29;72.04
7532;BME280;3807;49.030;8.714;2023-03-25T09:13:57;98730.25;;;10.52;71.25
7532;BME280;3807;49.030;8.714;2023-03-25T09:16:22;98739.28;;;10.59;71.10
7532;BME280;3807;49.030;8.714;2023-03-25T09:18:47;98739.97;;;10.63;70.89
7532;BME280;3807;49.030;8.714;2023-03-25T09:21:13;98724.00;;;10.59;71.13
7532;BME280;3807;49.030;8.714;2023-03-25T09:23:38;98733.88;;;10.67;70.80
7532;BME280;3807;49.030;8.714;2023-03-25T09:26:04;98735.69;;;10.84;70.49
7532;BME280;3807;49.030;8.714;2023-03-25T09:28:29;98724.00;;;10.59;70.90
7532;BME280;3807;49.030;8.714;2023-03-25T09:30:55;98727.28;;;10.42;72.17
7532;BME280;3807;49.030;8.714;2023-03-25T09:33:22;98737.31;;;10.66;71.91
7532;BME280;3807;49.030;8.714;2023-03-25T09:35:48;98729.41;;;10.72;70.73
7532;BME280;3807;49.030;8.714;2023-03-25T09:38:13;98742.84;;;10.76;70.97
7532;BME280;3807;49.030;8.714;2023-03-25T09:40:43;98756.41;;;10.35;73.72
7532;BME280;3807;49.030;8.714;2023-03-25T09:43:27;98766.56;;;10.37;75.86
7532;BME280;3807;49.030;8.714;2023-03-25T09:45:54;98759.25;;;10.29;74.29
7532;BME280;3807;49.030;8.714;2023-03-25T09:48:36;98759.13;;;10.32;74.83
7532;BME280;3807;49.030;8.714;2023-03-25T09:51:11;98752.69;;;10.44;73.48
7532;BME280;3807;49.030;8.714;2023-03-25T09:54:00;98755.09;;;10.67;73.52
7532;BME280;3807;49.030;8.714;2023-03-25T09:56:31;98763.47;;;10.69;73.00
7532;BME280;3807;49.030;8.714;2023-03-25T09:59:12;98767.06;;;10.84;75.42
7532;BME280;3807;49.030;8.714;2023-03-25T10:02:05;98770.25;;;10.50;77.98
7532;BME280;3807;49.030;8.714;2023-03-25T10:04:55;98779.19;;;10.59;78.06
7532;BME280;3807;49.030;8.714;2023-03-25T10:07:41;98770.53;;;10.42;79.07
7532;BME280;3807;49.030;8.714;2023-03-25T10:12:46;98767.13;;;10.64;76.72
7532;BME280;3807;49.030;8.714;2023-03-25T10:26:17;98756.16;;;11.94;71.55
7532;BME280;3807;49.030;8.714;2023-03-25T10:28:53;98756.63;;;11.47;72.19
7532;BME280;3807;49.030;8.714;2023-03-25T10:31:23;98745.53;;;11.48;72.61
7532;BME280;3807;49.030;8.714;2023-03-25T10:33:53;98754.94;;;11.84;72.30
7532;BME280;3807;49.030;8.714;2023-03-25T10:36:27;98757.34;;;12.04;71.82
7532;BME280;3807;49.030;8.714;2023-03-25T10:38:56;98753.00;;;11.70;72.17
7532;BME280;3807;49.030;8.714;2023-03-25T10:41:30;98737.94;;;11.65;72.19
7532;BME280;3807;49.030;8.714;2023-03-25T10:43:59;98737.63;;;11.72;72.67
7532;BME280;3807;49.030;8.714;2023-03-25T10:46:27;98743.31;;;12.13;70.82
7532;BME280;3807;49.030;8.714;2023-03-25T10:48:53;98734.63;;;12.17;71.14
7532;BME280;3807;49.030;8.714;2023-03-25T10:51:22;98745.16;;;11.92;72.17
7532;BME280;3807;49.030;8.714;2023-03-25T10:53:51;98735.22;;;12.22;71.00
7532;BME280;3807;49.030;8.714;2023-03-25T10:56:24;98733.47;;;12.23;70.23
7532;BME280;3807;49.030;8.714;2023-03-25T10:58:52;98723.00;;;12.45;69.26
7532;BME280;3807;49.030;8.714;2023-03-25T11:01:21;98722.03;;;12.80;69.11
7532;BME280;3807;49.030;8.714;2023-03-25T11:03:52;98712.69;;;12.63;68.66
7532;BME280;3807;49.030;8.714;2023-03-25T11:06:28;98716.47;;;12.72;68.04
7532;BME280;3807;49.030;8.714;2023-03-25T11:11:38;98724.91;;;12.24;68.61
7532;BME280;3807;49.030;8.714;2023-03-25T11:14:04;98721.53;;;12.23;68.62
7532;BME280;3807;49.030;8.714;2023-03-25T11:16:34;98724.72;;;12.44;69.02
7532;BME280;3807;49.030;8.714;2023-03-25T11:19:01;98727.22;;;12.46;68.77
7532;BME280;3807;49.030;8.714;2023-03-25T11:21:31;98735.97;;;12.57;68.09
7532;BME280;3807;49.030;8.714;2023-03-25T11:23:57;98721.22;;;12.29;69.58
7532;BME280;3807;49.030;8.714;2023-03-25T11:26:34;98725.00;;;12.22;68.11
7532;BME280;3807;49.030;8.714;2023-03-25T11:31:35;98721.22;;;12.29;69.10
7532;BME280;3807;49.030;8.714;2023-03-25T11:36:39;98723.75;;;12.47;68.18
7532;BME280;3807;49.030;8.714;2023-03-25T11:41:51;98713.84;;;12.40;65.42
7532;BME280;3807;49.030;8.714;2023-03-25T11:44:28;98714.88;;;12.87;64.25
7532;BME280;3807;49.030;8.714;2023-03-25T11:46:56;98701.66;;;12.63;65.06
7532;BME280;3807;49.030;8.714;2023-03-25T11:49:23;98716.88;;;12.98;63.95
7532;BME280;3807;49.030;8.714;2023-03-25T11:51:56;98716.16;;;13.27;63.53
7532;BME280;3807;49.030;8.714;2023-03-25T11:54:22;98712.75;;;13.11;63.17
7532;BME280;3807;49.030;8.714;2023-03-25T11:56:49;98710.59;;;13.03;64.35
7532;BME280;3807;49.030;8.714;2023-03-25T11:59:22;98713.56;;;12.96;64.47
7532;BME280;3807;49.030;8.714;2023-03-25T12:01:49;98714.97;;;13.01;65.43
7532;BME280;3807;49.030;8.714;2023-03-25T12:04:19;98700.03;;;13.09;64.12
7532;BME280;3807;49.030;8.714;2023-03-25T12:07:12;98699.94;;;12.79;64.89
7532;BME280;3807;49.030;8.714;2023-03-25T12:09:53;98715.69;;;12.87;65.81
7532;BME280;3807;49.030;8.714;2023-03-25T12:15:06;98708.50;;;12.78;65.35
7532;BME280;3807;49.030;8.714;2023-03-25T12:31:54;98717.47;;;13.50;63.29
7532;BME280;3807;49.030;8.714;2023-03-25T12:47:42;98724.81;;;13.87;60.53
7532;BME280;3807;49.030;8.714;2023-03-25T12:58:21;98732.28;;;14.05;60.83
7532;BME280;3807;49.030;8.714;2023-03-25T13:01:32;98713.94;;;13.83;62.55
7532;BME280;3807;49.030;8.714;2023-03-25T13:04:06;98717.19;;;14.60;59.27
7532;BME280;3807;49.030;8.714;2023-03-25T13:09:31;98706.13;;;14.59;58.09
7532;BME280;3807;49.030;8.714;2023-03-25T13:12:00;98702.72;;;14.44;60.69
7532;BME280;3807;49.030;8.714;2023-03-25T13:14:34;98695.88;;;14.73;59.55
7532;BME280;3807;49.030;8.714;2023-03-25T13:17:06;98688.34;;;14.70;59.36
7532;BME280;3807;49.030;8.714;2023-03-25T13:19:35;98704.75;;;14.96;56.55
7532;BME280;3807;49.030;8.714;2023-03-25T13:22:13;98704.78;;;15.09;57.58
7532;BME280;3807;49.030;8.714;2023-03-25T13:24:51;98702.03;;;15.12;56.80
7532;BME280;3807;49.030;8.714;2023-03-25T13:27:18;98696.53;;;15.18;57.15
7532;BME280;3807;49.030;8.714;2023-03-25T13:29:48;98693.62;;;15.37;57.04
7532;BME280;3807;49.030;8.714;2023-03-25T13:32:22;98694.47;;;15.23;55.22
7532;BME280;3807;49.030;8.714;2023-03-25T13:35:01;98694.56;;;14.95;58.71
7532;BME280;3807;49.030;8.714;2023-03-25T13:37:37;98683.06;;;15.15;56.72
7532;BME280;3807;49.030;8.714;2023-03-25T13:45:21;98697.69;;;15.00;55.85
7532;BME280;3807;49.030;8.714;2023-03-25T13:48:03;98707.22;;;15.25;56.06
7532;BME280;3807;49.030;8.714;2023-03-25T13:50:31;98710.03;;;14.93;57.21
7532;BME280;3807;49.030;8.714;2023-03-25T13:53:01;98716.34;;;14.30;59.45
7532;BME280;3807;49.030;8.714;2023-03-25T13:55:35;98711.88;;;14.04;58.94
7532;BME280;3807;49.030;8.714;2023-03-25T14:01:09;98716.94;;;14.79;58.13
7532;BME280;3807;49.030;8.714;2023-03-25T14:03:49;98705.94;;;14.62;57.61
7532;BME280;3807;49.030;8.714;2023-03-25T14:12:15;98715.78;;;14.40;56.57
7532;BME280;3807;49.030;8.714;2023-03-25T14:14:55;98713.06;;;14.57;54.06
7532;BME280;3807;49.030;8.714;2023-03-25T14:17:22;98726.53;;;14.61;54.64
7532;BME280;3807;49.030;8.714;2023-03-25T14:19:50;98735.69;;;14.50;55.54
7532;BME280;3807;49.030;8.714;2023-03-25T14:22:25;98734.41;;;14.72;53.68
7532;BME280;3807;49.030;8.714;2023-03-25T14:24:51;98735.41;;;14.98;54.89
7532;BME280;3807;49.030;8.714;2023-03-25T14:27:26;98745.94;;;14.93;53.52
7532;BME280;3807;49.030;8.714;2023-03-25T14:34:48;98751.34;;;15.03;54.01
7532;BME280;3807;49.030;8.714;2023-03-25T14:39:41;98742.28;;;14.83;53.87
7532;BME280;3807;49.030;8.714;2023-03-25T14:44:51;98743.63;;;14.74;54.04
7532;BME280;3807;49.030;8.714;2023-03-25T14:47:30;98739.97;;;15.07;53.17
7532;BME280;3807;49.030;8.714;2023-03-25T14:53:09;98727.16;;;15.07;54.75
7532;BME280;3807;49.030;8.714;2023-03-25T14:55:44;98734.47;;;15.40;53.26
7532;BME280;3807;49.030;8.714;2023-03-25T14:58:16;98725.97;;;15.40;54.03
7532;BME280;3807;49.030;8.714;2023-03-25T15:00:50;98721.00;;;15.78;53.44
7532;BME280;3807;49.030;8.714;2023-03-25T15:03:18;98725.38;;;15.22;53.46
7532;BME280;3807;49.030;8.714;2023-03-25T15:05:52;98719.63;;;15.18;53.06
7532;BME280;3807;49.030;8.714;2023-03-25T15:08:31;98715.78;;;15.65;53.92
7532;BME280;3807;49.030;8.714;2023-03-25T15:11:07;98712.22;;;15.41;52.20
7532;BME280;3807;49.030;8.714;2023-03-25T15:13:45;98720.94;;;15.38;52.97
7532;BME280;3807;49.030;8.714;2023-03-25T15:16:58;98703.75;;;15.53;53.91
7532;BME280;3807;49.030;8.714;2023-03-25T15:19:21;98705.50;;;15.53;52.19
7532;BME280;3807;49.030;8.714;2023-03-25T15:24:25;98709.84;;;15.65;51.81
7532;BME280;3807;49.030;8.714;2023-03-25T15:26:54;98701.09;;;15.28;52.86
7532;BME280;3807;49.030;8.714;2023-03-25T15:30:12;98700.91;;;15.31;52.52
7532;BME280;3807;49.030;8.714;2023-03-25T15:35:36;98696.31;;;14.94;53.31
7532;BME280;3807;49.030;8.714;2023-03-25T15:44:01;98707.94;;;15.00;49.23
7532;BME280;3807;49.030;8.714;2023-03-25T15:49:48;98711.38;;;16.07;49.53
7532;BME280;3807;49.030;8.714;2023-03-25T15:55:11;98704.03;;;15.76;49.08